Baltimore, Maryland
Traffic Map
Current Weather Conditions
Baltimore, Maryland
Broken Clouds
Broken Clouds
26°
Feels Like: 27°
Wind Chill: 26° Ceiling: 25000
Heat Index: 27° Visibility: 10mi
Dew Point: 20° Wind: 0mph
Humidity: 71% Direction: ° ()
Pressure: 29.88in Gusts: 0mph
Raw Report DataKBWI 040054Z 00000KT 10SM FEW060 SCT140 BKN250 26/20 A2988 RMK AO2 SLP117 T02560200
Traffic Incident Summary
Active as of:
Severity:
Category:
InformationThere was an issue retrieving the traffic information for this location. Please try a different location or try again shortly.
Advertisements
Track Severe Weather on mobile